Terminal Aerodrome Forecast
Issued by NWS

Home | Current Version | Previous Version | Text Only | Print | Product List | Glossary On
Versions: 1 2 3 4 5 6 7 8 9 10 11 12 13 14 15 16 17
000
FTUS45 KABQ 192300
TAFGUP
TAF
KGUP 192338Z 2000/2024 14008KT P6SM VCSH SCT050 BKN080
      TEMPO 2000/2002 BKN050
     FM200200 VRB06KT P6SM SCT035 BKN080
     FM200800 VRB06KT P6SM SCT012 SCT080
      TEMPO 2010/2014 5SM BR OVC012
     FM201500 07006KT P6SM SCT035 SCT080
     FM201900 05007KT P6SM VCTS SCT070CB BKN130=

USA.gov is the U.S. government's official web portal to all federal, state and local government web resources and services.